Time;durP1;ratioP1;P1;durP2;ratioP2;P2;SDS_P1;SDS_P2;PMS_P1;PMS_P2;Temp;Humidity;BMP_temperature;BMP_pressure;BME280_temperature;BME280_humidity;BME280_pressure;Samples;Min_cycle;Max_cycle;Signal;HPM_P1;HPM_P2
2022/01/23 00:02:06;;;;;;;49.23;39.58;;;21.90;96.30;;;;;;1823327;76;21665;-81
2022/01/23 00:04:27;;;;;;;52.38;39.88;;;21.80;96.40;;;;;;1823044;77;21147;-81
2022/01/23 00:07:02;;;;;;;48.85;38.78;;;21.80;96.30;;;;;;1803313;77;21484;-80
2022/01/23 00:09:30;;;;;;;51.00;38.55;;;21.80;96.30;;;;;;1808493;79;21182;-81
2022/01/23 00:12:06;;;;;;;47.48;39.33;;;21.80;96.40;;;;;;1836198;76;21635;-81
2022/01/23 00:17:17;;;;;;;50.30;37.78;;;21.80;96.30;;;;;;1813213;77;21119;-80
2022/01/23 00:19:38;;;;;;;43.92;34.98;;;21.90;96.20;;;;;;1827543;77;21156;-81
2022/01/23 00:22:10;;;;;;;45.45;36.50;;;21.90;96.10;;;;;;1825071;77;21182;-81
2022/01/23 00:32:17;;;;;;;41.65;34.65;;;21.80;95.90;;;;;;1820018;78;21681;-80
2022/01/23 00:34:47;;;;;;;42.00;33.65;;;21.70;96.00;;;;;;1816516;79;21166;-80
2022/01/23 00:37:19;;;;;;;40.05;32.98;;;21.70;96.10;;;;;;1807941;78;21643;-81
2022/01/23 00:39:50;;;;;;;44.30;32.78;;;21.70;96.20;;;;;;1812536;79;21594;-81
2022/01/23 00:42:20;;;;;;;39.58;32.55;;;21.70;96.20;;;;;;1838080;77;21660;-81
2022/01/23 00:45:00;;;;;;;41.42;33.23;;;21.80;96.20;;;;;;1842850;76;21143;-81
2022/01/23 00:47:24;;;;;;;45.23;34.70;;;21.80;96.20;;;;;;1815416;77;21195;-81
2022/01/23 00:49:55;;;;;;;43.38;33.65;;;21.90;96.20;;;;;;1826129;76;21151;-80
2022/01/23 00:52:26;;;;;;;43.30;34.50;;;21.90;96.30;;;;;;1800101;78;21178;-79
2022/01/23 00:54:57;;;;;;;45.30;34.70;;;21.80;96.60;;;;;;1845153;77;21566;-80
2022/01/23 00:57:28;;;;;;;41.25;35.75;;;21.90;96.90;;;;;;1801265;78;21236;-79
2022/01/23 00:59:59;;;;;;;47.48;36.73;;;21.80;97.20;;;;;;1811335;78;21175;-80
2022/01/23 01:02:30;;;;;;;51.50;40.90;;;21.90;97.40;;;;;;1813733;77;21226;-80
2022/01/23 01:05:01;;;;;;;51.13;39.65;;;21.80;97.40;;;;;;1806108;77;21269;-80
2022/01/23 01:07:32;;;;;;;47.45;39.25;;;21.80;97.60;;;;;;1792329;78;21225;-79
2022/01/23 01:10:08;;;;;;;52.95;43.58;;;21.90;97.70;;;;;;1796682;78;21147;-80
2022/01/23 01:12:41;;;;;;;50.75;44.05;;;22.00;97.90;;;;;;1817660;78;21113;-80
2022/01/23 01:30:47;;;;;;;57.15;41.80;;;22.10;98.20;;;;;;1800515;79;21142;-81
2022/01/23 01:35:40;;;;;;;61.08;46.28;;;22.10;98.70;;;;;;1833236;76;21250;-80
2022/01/23 01:38:03;;;;;;;62.33;47.88;;;22.00;98.90;;;;;;1831961;77;21139;-80
2022/01/23 01:40:34;;;;;;;66.05;46.98;;;22.10;99.30;;;;;;1801047;78;21688;-80
2022/01/23 01:43:06;;;;;;;58.87;45.05;;;22.00;99.60;;;;;;1799106;79;21113;-80
2022/01/23 01:45:38;;;;;;;58.17;46.02;;;22.00;99.80;;;;;;1806687;79;21175;-81
2022/01/23 01:48:09;;;;;;;41.83;33.38;;;22.10;99.90;;;;;;1808855;79;21154;-80
2022/01/23 01:50:44;;;;;;;42.20;32.73;;;22.00;99.90;;;;;;1815559;78;21163;-80
2022/01/23 01:53:12;;;;;;;42.03;31.00;;;22.00;99.90;;;;;;1796341;79;21140;-81
2022/01/23 01:55:48;;;;;;;34.63;26.62;;;22.10;99.90;;;;;;1805482;78;21191;-79
2022/01/23 02:00:56;;;;;;;41.42;32.15;;;22.10;99.70;;;;;;1803826;78;21206;-80
2022/01/23 02:08:30;;;;;;;41.92;32.90;;;22.20;99.90;;;;;;1841739;77;21630;-81
2022/01/23 02:11:06;;;;;;;42.95;34.27;;;22.20;99.80;;;;;;1841289;76;21167;-81
2022/01/23 02:13:37;;;;;;;40.10;31.80;;;22.20;99.90;;;;;;1823531;77;21101;-80
2022/01/23 02:22:31;;;;;;;42.33;32.75;;;22.10;99.90;;;;;;1809028;78;21237;-81
2022/01/23 02:56:44;;;;;;;50.67;40.12;;;22.00;99.90;;;;;;1801915;77;21096;-79
2022/01/23 02:59:31;;;;;;;51.05;39.90;;;22.10;99.90;;;;;;1837130;77;21106;-80
2022/01/23 03:02:00;;;;;;;52.50;40.38;;;22.10;99.90;;;;;;1810471;78;21662;-80
2022/01/23 03:04:20;;;;;;;56.35;44.05;;;22.10;99.90;;;;;;1808305;77;21137;-80
2022/01/23 03:27:27;;;;;;;56.28;44.53;;;22.40;99.90;;;;;;1800474;77;21654;-79
2022/01/23 03:29:52;;;;;;;52.70;42.50;;;22.40;99.90;;;;;;1799457;78;21179;-78
2022/01/23 03:34:37;;;;;;;51.68;39.90;;;22.40;99.90;;;;;;1813425;77;21689;-79
2022/01/23 03:37:08;;;;;;;48.63;38.53;;;22.40;99.90;;;;;;1821332;77;21202;-80
2022/01/23 03:39:38;;;;;;;50.15;40.03;;;22.40;99.90;;;;;;1803683;79;21277;-79
2022/01/23 03:42:10;;;;;;;48.28;41.30;;;22.40;99.90;;;;;;1793902;79;21208;-79
2022/01/23 03:44:51;;;;;;;45.03;38.65;;;22.40;99.90;;;;;;1803231;78;21167;-80
2022/01/23 03:47:31;;;;;;;38.38;32.08;;;22.40;99.90;;;;;;1815892;77;21112;-80
2022/01/23 03:49:45;;;;;;;42.10;34.45;;;22.40;99.90;;;;;;1852291;76;21627;-80
2022/01/23 03:52:16;;;;;;;53.40;43.70;;;22.50;99.90;;;;;;1819438;76;21171;-80
2022/01/23 03:54:47;;;;;;;48.02;39.25;;;22.50;99.90;;;;;;1826862;77;21095;-81
2022/01/23 03:57:18;;;;;;;40.05;32.90;;;22.50;99.90;;;;;;1822869;77;21199;-80
2022/01/23 03:59:49;;;;;;;44.25;34.03;;;22.50;99.90;;;;;;1804463;78;21145;-80
2022/01/23 04:02:20;;;;;;;43.63;35.60;;;22.50;99.90;;;;;;1808250;77;21093;-80
2022/01/23 04:04:51;;;;;;;45.17;36.63;;;22.50;99.90;;;;;;1795544;78;21213;-81
2022/01/23 04:07:27;;;;;;;38.40;34.20;;;22.60;99.90;;;;;;1812518;77;21151;-81
2022/01/23 04:09:56;;;;;;;47.23;36.88;;;22.60;99.90;;;;;;1816057;77;21175;-80
2022/01/23 04:15:11;;;;;;;48.90;38.92;;;22.70;99.90;;;;;;1791787;78;21168;-81
2022/01/23 04:45:30;;;;;;;40.55;33.18;;;23.10;99.90;;;;;;1798508;77;21099;-81
2022/01/23 05:00:48;;;;;;;34.58;29.20;;;23.30;99.30;;;;;;1805974;77;21748;-81
2022/01/23 05:05:41;;;;;;;38.10;29.10;;;23.30;99.30;;;;;;1801124;77;21232;-81
2022/01/23 05:08:17;;;;;;;33.78;28.73;;;23.40;99.00;;;;;;1795226;78;21345;-80
2022/01/23 05:10:46;;;;;;;35.23;29.75;;;23.40;98.70;;;;;;1792993;77;21152;-81
2022/01/23 05:13:17;;;;;;;37.23;30.30;;;23.40;98.60;;;;;;1802214;77;21678;-80
2022/01/23 05:15:47;;;;;;;35.85;28.40;;;23.50;98.60;;;;;;1797932;78;21151;-80
2022/01/23 05:18:18;;;;;;;39.80;30.77;;;23.50;98.60;;;;;;1829312;77;21143;-80
2022/01/23 05:20:58;;;;;;;34.85;29.05;;;23.50;98.60;;;;;;1831608;76;21662;-80
2022/01/23 05:23:21;;;;;;;36.28;31.17;;;23.50;98.50;;;;;;1834847;76;21159;-80
2022/01/23 05:25:52;;;;;;;39.15;31.55;;;23.60;98.30;;;;;;1835241;77;21154;-80
2022/01/23 05:28:23;;;;;;;41.98;33.50;;;23.60;98.30;;;;;;1834465;77;21290;-81
2022/01/23 05:30:53;;;;;;;39.67;32.50;;;23.60;98.20;;;;;;1815088;76;21261;-81
2022/01/23 05:33:25;;;;;;;39.40;31.80;;;23.70;98.10;;;;;;1788976;78;21180;-80
2022/01/23 05:35:56;;;;;;;35.90;30.02;;;23.70;98.00;;;;;;1801548;77;21677;-80
2022/01/23 05:38:27;;;;;;;34.80;30.32;;;23.70;97.90;;;;;;1789975;79;21219;-80
2022/01/23 05:40:59;;;;;;;36.50;30.57;;;23.70;98.00;;;;;;1809310;76;21144;-81
2022/01/23 05:43:30;;;;;;;36.93;29.48;;;23.70;97.90;;;;;;1824849;76;21245;-80
2022/01/23 05:46:01;;;;;;;38.53;30.55;;;23.80;97.90;;;;;;1813147;77;21643;-81
2022/01/23 05:48:31;;;;;;;36.70;31.02;;;23.90;97.70;;;;;;1797961;77;21732;-80
2022/01/23 05:51:02;;;;;;;35.20;28.15;;;24.00;97.60;;;;;;1835217;75;21737;-80
2022/01/23 05:53:33;;;;;;;34.78;29.32;;;24.00;97.10;;;;;;1800887;77;21112;-81
2022/01/23 05:56:04;;;;;;;34.20;29.40;;;24.10;96.90;;;;;;1789466;78;21254;-80
2022/01/23 05:58:34;;;;;;;38.20;31.48;;;24.20;96.70;;;;;;1791055;77;21198;-80
2022/01/23 06:01:06;;;;;;;36.05;29.00;;;24.20;96.90;;;;;;1810442;77;21206;-80
2022/01/23 06:03:36;;;;;;;37.10;29.48;;;24.30;96.50;;;;;;1774893;78;21198;-81
2022/01/23 06:06:07;;;;;;;31.12;26.12;;;24.30;96.60;;;;;;1811224;77;21254;-81
2022/01/23 06:08:38;;;;;;;32.28;26.25;;;24.40;95.80;;;;;;1814055;77;21662;-81
2022/01/23 06:11:08;;;;;;;26.75;23.25;;;24.50;95.50;;;;;;1834203;76;21641;-80
2022/01/23 06:13:39;;;;;;;32.33;25.37;;;24.50;95.40;;;;;;1839575;76;21140;-80
2022/01/23 06:16:10;;;;;;;29.77;25.70;;;24.60;95.20;;;;;;1828020;77;21723;-80
2022/01/23 06:18:41;;;;;;;30.92;24.90;;;24.70;95.00;;;;;;1821160;77;21198;-80
2022/01/23 06:21:15;;;;;;;28.20;23.25;;;24.90;94.90;;;;;;1816740;77;21195;-81
2022/01/23 06:23:44;;;;;;;28.50;24.85;;;25.00;94.50;;;;;;1822421;76;21126;-81
2022/01/23 06:26:16;;;;;;;25.52;21.90;;;25.30;94.60;;;;;;1815312;77;21236;-82
2022/01/23 06:28:49;;;;;;;26.15;21.73;;;25.50;94.00;;;;;;1813340;78;21180;-82
2022/01/23 06:31:20;;;;;;;23.00;20.50;;;25.60;93.40;;;;;;1816670;77;21206;-81
2022/01/23 06:33:51;;;;;;;24.65;19.50;;;25.80;93.10;;;;;;1810278;78;21122;-82
2022/01/23 06:36:22;;;;;;;25.75;20.97;;;25.90;92.90;;;;;;1805220;77;21266;-82
2022/01/23 06:38:53;;;;;;;26.60;20.45;;;26.00;92.20;;;;;;1820324;77;21685;-81
2022/01/23 06:41:24;;;;;;;23.60;17.65;;;26.00;91.50;;;;;;1830625;77;21104;-82
2022/01/23 06:43:54;;;;;;;20.02;16.90;;;26.00;90.90;;;;;;1818461;77;21249;-81
2022/01/23 06:46:26;;;;;;;24.70;19.57;;;26.00;90.50;;;;;;1811093;77;21119;-81
2022/01/23 06:49:00;;;;;;;23.87;18.67;;;26.00;91.30;;;;;;1853931;76;21669;-82
2022/01/23 06:51:31;;;;;;;21.12;17.55;;;26.10;90.70;;;;;;1842273;75;22442;-80
2022/01/23 06:54:01;;;;;;;22.00;18.37;;;26.20;90.80;;;;;;1867166;75;21187;-81
2022/01/23 06:56:32;;;;;;;23.20;19.42;;;26.30;90.80;;;;;;1835073;77;21091;-80
2022/01/23 06:59:03;;;;;;;21.85;18.95;;;26.40;90.80;;;;;;1828270;76;21299;-81
2022/01/23 07:01:34;;;;;;;22.62;18.52;;;26.30;90.50;;;;;;1843147;76;21226;-81
2022/01/23 07:04:05;;;;;;;21.02;17.67;;;26.30;90.20;;;;;;1845271;76;21093;-81
2022/01/23 07:06:36;;;;;;;25.50;19.87;;;26.30;90.20;;;;;;1844732;76;21537;-81
2022/01/23 07:09:09;;;;;;;24.55;20.50;;;26.30;90.10;;;;;;1819823;77;21658;-80
2022/01/23 07:11:41;;;;;;;21.48;18.92;;;26.20;90.20;;;;;;1843649;76;21489;-82
2022/01/23 07:14:13;;;;;;;23.27;19.15;;;26.30;90.60;;;;;;1831030;76;21627;-82
2022/01/23 07:16:45;;;;;;;19.57;17.48;;;26.40;90.20;;;;;;1793350;77;21606;-81
2022/01/23 07:19:16;;;;;;;20.88;17.65;;;26.40;90.10;;;;;;1779980;79;21226;-82
2022/01/23 07:21:48;;;;;;;21.65;17.55;;;26.60;89.50;;;;;;1809643;79;21515;-81
2022/01/23 07:24:23;;;;;;;22.27;17.98;;;26.60;89.30;;;;;;1813430;78;21168;-84
2022/01/23 07:26:53;;;;;;;27.73;20.65;;;26.80;90.10;;;;;;1817148;78;21101;-80
2022/01/23 07:29:30;;;;;;;24.12;20.90;;;26.80;88.70;;;;;;1811191;79;21192;-82
2022/01/23 07:32:06;;;;;;;22.60;19.17;;;26.90;87.70;;;;;;1810184;78;21155;-82
2022/01/23 07:34:31;;;;;;;23.65;19.85;;;27.00;89.00;;;;;;1788546;77;21185;-81
2022/01/23 07:37:02;;;;;;;22.73;19.60;;;27.10;88.40;;;;;;1799076;79;21666;-80
2022/01/23 07:39:33;;;;;;;24.90;21.85;;;27.20;88.80;;;;;;1794877;78;21753;-81
2022/01/23 07:42:04;;;;;;;27.27;23.07;;;27.20;88.10;;;;;;1821242;77;21775;-82
2022/01/23 07:44:34;;;;;;;25.12;21.15;;;27.30;87.70;;;;;;1813273;77;21214;-82
2022/01/23 07:47:06;;;;;;;25.77;21.05;;;27.20;87.10;;;;;;1825392;76;21678;-82
2022/01/23 07:49:37;;;;;;;25.45;19.67;;;27.30;87.40;;;;;;1816970;77;21312;-81
2022/01/23 07:52:08;;;;;;;25.77;20.77;;;27.30;85.70;;;;;;1812817;77;21159;-81
2022/01/23 07:54:39;;;;;;;23.10;19.40;;;27.30;85.60;;;;;;1787086;79;21611;-81
2022/01/23 07:57:10;;;;;;;23.60;19.48;;;27.20;85.90;;;;;;1830265;77;21141;-81
2022/01/23 07:59:41;;;;;;;23.47;19.07;;;27.20;86.50;;;;;;1826319;76;21238;-82
2022/01/23 08:02:12;;;;;;;23.70;18.90;;;27.20;86.50;;;;;;1781878;79;21226;-82
2022/01/23 08:04:42;;;;;;;24.25;20.62;;;27.20;86.50;;;;;;1771226;78;21227;-82
2022/01/23 08:07:22;;;;;;;24.55;18.67;;;27.10;86.40;;;;;;1803635;78;21159;-83
2022/01/23 08:09:45;;;;;;;23.67;19.25;;;27.10;86.00;;;;;;1821881;76;21143;-82
2022/01/23 08:12:17;;;;;;;25.75;21.12;;;27.10;86.00;;;;;;1827045;76;21164;-82
2022/01/23 08:14:47;;;;;;;28.83;22.95;;;27.10;86.20;;;;;;1822458;77;21179;-82
2022/01/23 08:17:19;;;;;;;29.52;22.62;;;27.10;86.50;;;;;;1823700;77;21155;-82
2022/01/23 08:19:49;;;;;;;23.45;20.25;;;27.10;86.80;;;;;;1785373;79;21227;-81
2022/01/23 08:22:22;;;;;;;29.85;24.05;;;27.20;86.20;;;;;;1811735;77;21163;-82
2022/01/23 08:24:54;;;;;;;25.77;21.35;;;27.10;85.80;;;;;;1836900;77;21279;-79
2022/01/23 08:27:26;;;;;;;29.72;22.42;;;27.10;85.90;;;;;;1838700;78;21096;-81
2022/01/23 08:29:59;;;;;;;22.55;20.02;;;27.10;86.20;;;;;;1809372;78;21202;-82
2022/01/23 08:32:30;;;;;;;27.13;21.20;;;27.10;85.80;;;;;;1849518;76;21181;-82
2022/01/23 08:35:01;;;;;;;24.23;20.97;;;27.00;85.40;;;;;;1839319;77;21143;-81
2022/01/23 08:37:32;;;;;;;27.90;20.50;;;27.00;86.20;;;;;;1827970;77;21232;-80
2022/01/23 08:40:04;;;;;;;26.60;19.95;;;27.00;85.50;;;;;;1832491;76;21107;-82
2022/01/23 08:42:35;;;;;;;25.57;18.02;;;27.00;85.80;;;;;;1837651;76;21260;-83
2022/01/23 08:45:07;;;;;;;23.38;19.00;;;26.90;85.10;;;;;;1834728;76;21159;-82
2022/01/23 08:47:39;;;;;;;21.68;18.05;;;26.90;84.40;;;;;;1857876;76;21105;-82
2022/01/23 08:50:10;;;;;;;22.02;17.98;;;26.90;84.90;;;;;;1822032;77;21162;-82
2022/01/23 08:52:41;;;;;;;23.80;19.98;;;26.90;84.80;;;;;;1814535;78;21207;-80
2022/01/23 08:55:12;;;;;;;22.50;19.12;;;26.90;84.40;;;;;;1826038;77;21231;-82
2022/01/23 08:57:43;;;;;;;24.23;19.60;;;26.90;85.10;;;;;;1794806;79;21133;-82
2022/01/23 09:00:18;;;;;;;23.12;16.65;;;26.90;86.20;;;;;;1797478;78;21168;-83
2022/01/23 09:02:55;;;;;;;22.00;17.55;;;26.90;85.10;;;;;;1812889;77;21752;-82
2022/01/23 09:05:29;;;;;;;20.23;16.45;;;26.90;85.20;;;;;;1805695;78;21258;-82
2022/01/23 09:08:03;;;;;;;17.73;15.70;;;26.90;85.20;;;;;;1784287;79;21173;-82
2022/01/23 09:10:41;;;;;;;20.75;16.50;;;27.00;85.00;;;;;;1810110;79;21249;-81
2022/01/23 09:13:15;;;;;;;21.00;16.52;;;27.00;85.10;;;;;;1811076;77;21226;-82
2022/01/23 09:15:37;;;;;;;18.52;15.50;;;27.00;84.30;;;;;;1810668;78;21622;-81
2022/01/23 09:18:08;;;;;;;20.77;16.00;;;27.00;84.60;;;;;;1830068;76;21164;-82
2022/01/23 09:20:39;;;;;;;17.75;15.20;;;27.00;84.50;;;;;;1828947;76;21260;-81
2022/01/23 09:23:10;;;;;;;16.07;13.72;;;27.10;84.40;;;;;;1818479;77;21156;-81
2022/01/23 09:25:40;;;;;;;20.23;14.35;;;27.00;84.40;;;;;;1823779;78;21163;-81
2022/01/23 09:28:14;;;;;;;18.77;13.98;;;27.10;84.00;;;;;;1810663;79;21140;-83
2022/01/23 09:30:48;;;;;;;15.50;13.48;;;27.00;83.90;;;;;;1810109;77;21280;-81
2022/01/23 09:33:16;;;;;;;16.40;13.58;;;27.00;83.40;;;;;;1772887;78;21263;-80
2022/01/23 09:35:49;;;;;;;19.90;14.07;;;27.00;83.90;;;;;;1780341;78;21558;-81
2022/01/23 09:38:20;;;;;;;17.95;14.40;;;26.90;83.30;;;;;;1813672;77;21639;-81
2022/01/23 09:40:54;;;;;;;15.58;13.48;;;26.90;83.40;;;;;;1834597;77;21207;-81
2022/01/23 09:43:26;;;;;;;15.83;12.78;;;26.90;83.40;;;;;;1830215;77;21234;-82
2022/01/23 09:45:57;;;;;;;17.32;13.58;;;26.90;83.80;;;;;;1827282;77;21156;-82
2022/01/23 09:48:29;;;;;;;15.18;12.73;;;26.90;83.90;;;;;;1803274;77;21182;-82
2022/01/23 09:51:04;;;;;;;17.52;12.85;;;26.80;83.60;;;;;;1792920;79;21645;-81
2022/01/23 09:53:35;;;;;;;14.63;12.85;;;26.80;83.70;;;;;;1768509;78;21225;-82
2022/01/23 09:56:08;;;;;;;15.68;12.47;;;26.80;83.80;;;;;;1810040;77;21203;-82
2022/01/23 09:58:40;;;;;;;16.70;13.15;;;26.80;83.90;;;;;;1848494;76;21500;-81
2022/01/23 10:01:12;;;;;;;16.52;12.98;;;26.70;83.70;;;;;;1836545;76;21237;-80
2022/01/23 10:03:43;;;;;;;14.93;12.25;;;26.70;84.20;;;;;;1844077;77;21206;-81
2022/01/23 10:06:15;;;;;;;15.65;13.38;;;26.70;84.20;;;;;;1838707;76;21848;-81
2022/01/23 10:08:46;;;;;;;17.70;13.80;;;26.70;84.50;;;;;;1837878;76;21704;-80
2022/01/23 10:11:17;;;;;;;15.32;13.18;;;26.60;84.50;;;;;;1832656;76;21683;-82
2022/01/23 10:13:50;;;;;;;16.82;13.90;;;26.60;84.70;;;;;;1848398;76;21743;-81
2022/01/23 10:16:20;;;;;;;19.00;14.33;;;26.60;84.80;;;;;;1823093;77;21147;-81
2022/01/23 10:18:51;;;;;;;23.27;15.23;;;26.60;84.80;;;;;;1817318;77;21178;-82
2022/01/23 10:21:23;;;;;;;19.37;14.85;;;26.50;85.10;;;;;;1819511;77;21175;-81
2022/01/23 10:23:54;;;;;;;19.05;15.32;;;26.50;85.50;;;;;;1848916;76;21164;-81
2022/01/23 10:26:27;;;;;;;24.75;15.72;;;26.50;85.70;;;;;;1842042;77;21092;-81
2022/01/23 10:29:00;;;;;;;21.73;16.27;;;26.40;85.70;;;;;;1799292;78;21624;-82
2022/01/23 10:31:31;;;;;;;18.32;15.53;;;26.40;85.70;;;;;;1815979;78;21243;-81
2022/01/23 10:34:02;;;;;;;20.70;16.37;;;26.30;85.80;;;;;;1834862;77;21116;-81
2022/01/23 10:36:32;;;;;;;19.07;15.93;;;26.30;85.60;;;;;;1842773;76;21191;-81
2022/01/23 10:39:04;;;;;;;17.52;14.70;;;26.30;85.70;;;;;;1817753;76;21159;-80
2022/01/23 10:47:17;;;;;;;19.67;15.25;;;26.20;85.80;;;;;;1809154;77;21289;-81
2022/01/23 10:49:16;;;;;;;17.52;14.47;;;26.20;86.00;;;;;;1814822;77;21175;-81
2022/01/23 10:51:50;;;;;;;20.75;15.03;;;26.20;86.20;;;;;;1817653;78;21123;-82
2022/01/23 10:54:23;;;;;;;20.45;17.00;;;26.10;86.20;;;;;;1802645;78;21244;-82
2022/01/23 10:56:54;;;;;;;22.67;18.10;;;26.10;86.30;;;;;;1813056;78;21639;-81
2022/01/23 10:59:27;;;;;;;19.70;15.88;;;26.10;86.50;;;;;;1808377;78;21208;-82
2022/01/23 11:02:00;;;;;;;19.40;15.83;;;26.00;86.50;;;;;;1813252;77;21273;-81
2022/01/23 11:04:33;;;;;;;23.40;17.37;;;26.00;86.50;;;;;;1842996;76;21249;-81
2022/01/23 11:07:07;;;;;;;21.02;17.00;;;26.00;86.70;;;;;;1798531;79;21239;-81
2022/01/23 11:09:41;;;;;;;23.83;16.57;;;25.90;86.60;;;;;;1803603;77;21290;-82
2022/01/23 11:12:15;;;;;;;18.87;16.37;;;25.90;86.70;;;;;;1833924;76;21728;-81
2022/01/23 11:17:22;;;;;;;20.95;16.55;;;25.90;87.00;;;;;;1797666;79;21121;-81
2022/01/23 11:19:53;;;;;;;21.40;16.73;;;25.80;87.00;;;;;;1799938;78;21568;-82
2022/01/23 11:22:26;;;;;;;29.23;21.00;;;25.80;87.10;;;;;;1816340;76;21203;-82
2022/01/23 11:24:59;;;;;;;49.75;35.75;;;25.80;87.40;;;;;;1830903;76;21218;-83
2022/01/23 11:27:33;;;;;;;44.63;31.75;;;25.80;87.50;;;;;;1832834;76;21156;-81
2022/01/23 11:30:07;;;;;;;30.90;19.87;;;25.70;87.50;;;;;;1833343;77;21714;-81
2022/01/23 11:32:41;;;;;;;26.85;17.57;;;25.70;87.40;;;;;;1826766;77;21201;-80
2022/01/23 11:35:15;;;;;;;27.25;17.87;;;25.70;87.70;;;;;;1827495;76;21147;-82
2022/01/23 11:37:51;;;;;;;24.20;18.55;;;25.70;88.10;;;;;;1811924;78;21242;-80
2022/01/23 11:50:48;;;;;;;24.70;19.30;;;25.50;88.40;;;;;;1811320;77;21606;-82
2022/01/23 11:55:46;;;;;;;22.55;17.10;;;25.50;88.80;;;;;;1837446;77;22206;-81
2022/01/23 11:58:19;;;;;;;22.65;17.07;;;25.50;88.90;;;;;;1798210;77;21178;-82
2022/01/23 12:00:50;;;;;;;24.67;16.82;;;25.50;89.20;;;;;;1816544;77;21112;-81
2022/01/23 12:03:22;;;;;;;27.90;23.30;;;25.40;89.30;;;;;;1766070;78;21171;-81
2022/01/23 12:05:55;;;;;;;28.70;21.02;;;25.40;89.30;;;;;;1794455;78;21694;-80
2022/01/23 12:08:30;;;;;;;27.13;21.02;;;25.40;89.40;;;;;;1808296;77;21163;-81
2022/01/23 12:11:15;;;;;;;31.30;23.90;;;25.30;89.30;;;;;;1798028;78;21629;-81
2022/01/23 12:18:37;;;;;;;28.70;19.65;;;25.30;89.50;;;;;;1811904;78;21124;-81
2022/01/23 12:21:10;;;;;;;23.38;17.62;;;25.30;89.40;;;;;;1805488;77;21184;-82
2022/01/23 12:23:44;;;;;;;25.05;18.80;;;25.30;89.50;;;;;;1798945;78;21200;-81
2022/01/23 12:26:17;;;;;;;28.62;19.17;;;25.30;89.60;;;;;;1803281;79;21900;-82
2022/01/23 12:28:48;;;;;;;24.80;17.45;;;25.30;89.60;;;;;;1833885;76;21261;-82
2022/01/23 12:31:26;;;;;;;27.58;18.67;;;25.30;89.70;;;;;;1812385;77;21659;-80
2022/01/23 12:33:58;;;;;;;26.20;19.17;;;25.30;89.80;;;;;;1804284;78;21169;-82
2022/01/23 12:36:31;;;;;;;23.80;18.73;;;25.30;90.00;;;;;;1798121;79;21208;-81
2022/01/23 12:39:04;;;;;;;26.17;18.98;;;25.20;90.00;;;;;;1836073;76;21217;-81
2022/01/23 12:41:36;;;;;;;30.62;20.08;;;25.20;90.20;;;;;;1839248;77;21139;-81
2022/01/23 12:44:07;;;;;;;28.67;21.30;;;25.20;90.30;;;;;;1832824;76;21356;-81
2022/01/23 12:46:39;;;;;;;30.95;22.30;;;25.10;90.30;;;;;;1829107;76;21220;-81
2022/01/23 12:49:26;;;;;;;34.13;20.65;;;25.10;90.30;;;;;;1792448;78;21226;-81
2022/01/23 12:51:59;;;;;;;27.05;20.45;;;25.10;90.40;;;;;;1813163;77;21641;-81
2022/01/23 12:54:32;;;;;;;32.25;22.48;;;25.00;90.30;;;;;;1795488;78;21746;-82
2022/01/23 12:57:05;;;;;;;28.12;21.25;;;25.10;90.80;;;;;;1834727;76;21740;-80
2022/01/23 12:59:37;;;;;;;26.12;19.82;;;25.10;90.40;;;;;;1824512;76;21231;-81
2022/01/23 13:02:13;;;;;;;30.75;22.02;;;25.10;90.30;;;;;;1839277;76;22680;-80
2022/01/23 13:04:45;;;;;;;33.15;23.15;;;25.10;90.40;;;;;;1805936;78;21192;-80
2022/01/23 13:07:24;;;;;;;31.48;22.73;;;25.10;90.40;;;;;;1802753;79;21156;-80
2022/01/23 13:10:05;;;;;;;35.85;25.05;;;25.10;90.50;;;;;;1804529;78;21092;-81
2022/01/23 13:17:44;;;;;;;33.75;22.58;;;25.10;90.60;;;;;;1807528;77;21187;-81
2022/01/23 13:30:24;;;;;;;33.65;23.60;;;25.00;90.60;;;;;;1797821;78;21159;-81
2022/01/23 13:32:58;;;;;;;29.92;22.95;;;25.10;90.70;;;;;;1801183;78;21244;-80
2022/01/23 13:35:36;;;;;;;30.27;23.60;;;25.10;90.70;;;;;;1825221;76;21109;-81
2022/01/23 13:38:03;;;;;;;34.40;23.47;;;25.10;90.80;;;;;;1837779;75;21243;-82
2022/01/23 13:40:39;;;;;;;28.98;21.93;;;25.00;90.90;;;;;;1808067;77;21062;-81
2022/01/23 13:48:44;;;;;;;34.80;23.45;;;25.00;91.10;;;;;;1794579;78;21948;-80
2022/01/23 13:53:27;;;;;;;38.63;23.83;;;25.00;91.30;;;;;;1827236;77;21622;-80
2022/01/23 14:00:57;;;;;;;31.12;24.23;;;25.00;91.60;;;;;;1828219;76;21721;-81
2022/01/23 14:03:28;;;;;;;34.10;24.95;;;24.90;91.70;;;;;;1844596;76;21148;-81
2022/01/23 14:06:00;;;;;;;33.98;23.65;;;24.90;91.80;;;;;;1821167;77;21184;-80
2022/01/23 14:08:30;;;;;;;35.03;26.23;;;24.90;91.90;;;;;;1810592;77;21233;-81
2022/01/23 14:11:01;;;;;;;37.45;25.43;;;24.80;92.00;;;;;;1817729;77;21619;-80
2022/01/23 14:13:34;;;;;;;34.30;28.07;;;24.80;92.10;;;;;;1809913;77;21634;-81
2022/01/23 14:16:05;;;;;;;41.00;29.87;;;24.80;92.20;;;;;;1826371;77;21209;-81
2022/01/23 14:18:36;;;;;;;39.63;29.30;;;24.80;92.40;;;;;;1827432;78;21155;-79
2022/01/23 14:21:09;;;;;;;40.65;28.85;;;24.80;92.40;;;;;;1816139;77;21213;-80
2022/01/23 14:23:40;;;;;;;44.30;32.05;;;24.80;92.40;;;;;;1841253;77;21136;-79
2022/01/23 14:26:13;;;;;;;40.60;31.57;;;24.80;92.40;;;;;;1827514;77;21291;-81
2022/01/23 14:28:47;;;;;;;41.92;31.10;;;24.80;92.50;;;;;;1829257;77;21254;-80
2022/01/23 14:31:22;;;;;;;45.08;31.23;;;24.80;92.60;;;;;;1785783;78;21587;-79
2022/01/23 14:33:59;;;;;;;46.88;31.00;;;24.80;92.70;;;;;;1828648;77;21186;-81
2022/01/23 14:36:31;;;;;;;44.25;33.13;;;24.70;92.70;;;;;;1823790;76;21230;-81
2022/01/23 14:39:02;;;;;;;43.10;30.62;;;24.70;92.70;;;;;;1774416;79;21183;-81
2022/01/23 14:41:35;;;;;;;43.65;32.23;;;24.70;92.70;;;;;;1810425;78;21175;-81
2022/01/23 14:44:08;;;;;;;41.48;32.20;;;24.70;92.80;;;;;;1809513;79;21207;-80
2022/01/23 14:46:42;;;;;;;45.52;31.52;;;24.60;92.80;;;;;;1825905;77;21204;-81
2022/01/23 14:49:21;;;;;;;47.65;32.67;;;24.60;92.80;;;;;;1850791;76;21120;-81
2022/01/23 14:51:46;;;;;;;49.05;32.23;;;24.60;92.80;;;;;;1823183;77;21611;-81
2022/01/23 14:54:18;;;;;;;46.80;32.85;;;24.60;92.80;;;;;;1838607;77;21148;-79
2022/01/23 14:56:49;;;;;;;48.13;33.80;;;24.60;92.80;;;;;;1830577;76;21261;-81
2022/01/23 14:59:20;;;;;;;45.30;33.67;;;24.50;92.80;;;;;;1823113;77;21299;-81
2022/01/23 15:01:51;;;;;;;40.95;32.00;;;24.50;92.90;;;;;;1822523;77;21116;-79
2022/01/23 15:04:23;;;;;;;42.38;31.27;;;24.50;92.90;;;;;;1835451;76;21215;-80
2022/01/23 15:06:54;;;;;;;41.10;30.50;;;24.50;92.90;;;;;;1828186;76;21154;-80
2022/01/23 15:09:26;;;;;;;46.28;31.52;;;24.50;92.80;;;;;;1828927;76;21170;-80
2022/01/23 15:11:57;;;;;;;40.48;30.02;;;24.40;92.90;;;;;;1813054;78;21256;-80
2022/01/23 15:14:28;;;;;;;40.58;30.82;;;24.40;93.00;;;;;;1818712;77;21175;-80
2022/01/23 15:16:59;;;;;;;43.17;31.10;;;24.40;92.90;;;;;;1785384;79;21186;-80
2022/01/23 15:19:29;;;;;;;43.23;30.27;;;24.40;93.00;;;;;;1785428;78;21151;-80
2022/01/23 15:22:00;;;;;;;43.87;29.80;;;24.40;93.00;;;;;;1817776;77;21255;-79
2022/01/23 15:24:31;;;;;;;43.83;30.30;;;24.40;93.10;;;;;;1785706;77;21646;-81
2022/01/23 15:27:02;;;;;;;41.48;32.23;;;24.40;93.10;;;;;;1805324;78;21154;-80
2022/01/23 15:29:33;;;;;;;40.03;30.80;;;24.40;93.10;;;;;;1800980;79;21583;-81
2022/01/23 15:32:04;;;;;;;42.60;30.43;;;24.40;93.10;;;;;;1821189;77;21254;-80
2022/01/23 15:34:36;;;;;;;38.25;29.70;;;24.40;93.20;;;;;;1820287;76;21159;-81
2022/01/23 15:37:07;;;;;;;45.90;31.05;;;24.40;93.20;;;;;;1833226;76;21199;-80
2022/01/23 15:39:38;;;;;;;43.87;32.20;;;24.40;93.20;;;;;;1826435;77;21097;-80
2022/01/23 15:42:09;;;;;;;46.10;32.83;;;24.30;93.30;;;;;;1812861;77;21191;-80
2022/01/23 15:44:40;;;;;;;41.35;30.68;;;24.30;93.30;;;;;;1809226;77;21708;-80
2022/01/23 15:47:11;;;;;;;43.17;31.17;;;24.30;93.30;;;;;;1802627;77;21961;-80
2022/01/23 15:49:42;;;;;;;46.48;32.55;;;24.30;93.40;;;;;;1812149;78;21222;-80
2022/01/23 15:52:13;;;;;;;42.55;31.20;;;24.30;93.40;;;;;;1808781;77;21207;-80
2022/01/23 15:54:43;;;;;;;45.20;31.40;;;24.30;93.50;;;;;;1813769;78;21151;-81
2022/01/23 15:57:15;;;;;;;44.83;32.08;;;24.20;93.50;;;;;;1807062;78;21269;-81
2022/01/23 15:59:46;;;;;;;41.65;30.55;;;24.20;93.40;;;;;;1817138;78;21677;-80
2022/01/23 16:02:17;;;;;;;38.35;28.92;;;24.30;93.30;;;;;;1800531;77;21170;-81
2022/01/23 16:04:48;;;;;;;40.20;30.17;;;24.30;93.10;;;;;;1823307;77;21195;-81
2022/01/23 16:07:19;;;;;;;40.50;30.85;;;24.30;92.90;;;;;;1823406;77;21127;-81